Time;durP1;ratioP1;P1;durP2;ratioP2;P2;SDS_P1;SDS_P2;PMS_P1;PMS_P2;Temp;Humidity;BMP_temperature;BMP_pressure;BME280_temperature;BME280_humidity;BME280_pressure;Samples;Min_cycle;Max_cycle;Signal;HPM_P1;HPM_P2
2022/08/10 00:01:52;;;;;;;3.17;1.52;;;;;;;16.85;70.54;102852.56;4787963;29;20078;-71
2022/08/10 00:04:21;;;;;;;2.90;1.95;;;;;;;16.80;70.29;102845.81;4787813;29;20118;-72
2022/08/10 00:06:51;;;;;;;1.20;1.20;;;;;;;16.78;70.76;102847.44;4788137;29;20135;-72
2022/08/10 00:09:18;;;;;;;1.42;1.30;;;;;;;16.75;70.81;102845.63;4788273;29;20067;-71
2022/08/10 00:11:45;;;;;;;1.27;1.27;;;;;;;16.70;71.24;102840.78;4788016;29;20058;-71
2022/08/10 00:14:11;;;;;;;1.60;1.50;;;;;;;16.64;71.07;102844.00;4799848;29;20117;-71
2022/08/10 00:16:37;;;;;;;1.70;1.60;;;;;;;16.62;71.38;102850.97;4786056;29;20052;-72
2022/08/10 00:19:04;;;;;;;1.98;1.48;;;;;;;16.59;71.40;102846.44;4785380;29;20502;-72
2022/08/10 00:21:30;;;;;;;5.50;1.60;;;;;;;16.56;71.15;102852.69;4787715;29;20498;-72
2022/08/10 00:23:57;;;;;;;2.47;1.80;;;;;;;16.50;71.67;102852.44;4770154;29;20124;-72
2022/08/10 00:26:23;;;;;;;1.60;1.60;;;;;;;16.47;71.76;102855.25;4787701;29;20056;-71
2022/08/10 00:28:51;;;;;;;1.80;1.70;;;;;;;16.43;72.03;102851.91;4787254;29;20100;-72
2022/08/10 00:31:18;;;;;;;1.75;1.50;;;;;;;16.38;71.85;102850.53;4788145;29;20048;-71
2022/08/10 00:33:44;;;;;;;3.05;1.75;;;;;;;16.32;72.35;102847.63;4786201;29;20056;-72
2022/08/10 00:36:11;;;;;;;1.70;1.60;;;;;;;16.30;72.63;102849.97;4787139;29;20058;-72
2022/08/10 00:38:37;;;;;;;1.60;1.60;;;;;;;16.26;72.71;102849.31;4787918;29;20047;-72
2022/08/10 00:41:04;;;;;;;1.52;1.52;;;;;;;16.20;72.50;102840.28;4787659;29;20056;-72
2022/08/10 00:43:30;;;;;;;1.88;1.77;;;;;;;16.14;72.77;102842.00;4786446;29;20048;-72
2022/08/10 00:45:57;;;;;;;1.83;1.73;;;;;;;16.13;72.74;102839.72;4787290;29;20056;-71
2022/08/10 00:48:29;;;;;;;1.80;1.70;;;;;;;16.08;73.09;102843.69;4786906;29;20056;-71
2022/08/10 00:50:59;;;;;;;3.28;1.80;;;;;;;16.06;73.13;102847.97;4787561;29;20056;-71
2022/08/10 00:53:27;;;;;;;2.00;1.90;;;;;;;15.99;73.79;102844.31;4787401;29;20388;-72
2022/08/10 00:55:54;;;;;;;1.85;1.75;;;;;;;15.97;73.47;102835.19;4786169;29;20056;-72
2022/08/10 00:58:41;;;;;;;1.88;1.77;;;;;;;15.93;74.06;102834.53;4787343;29;20509;-71
2022/08/10 01:01:07;;;;;;;2.00;1.90;;;;;;;15.90;73.90;102835.38;4787003;29;20048;-71
2022/08/10 01:03:53;;;;;;;2.00;1.90;;;;;;;15.88;73.96;102835.81;4787186;29;20083;-72
2022/08/10 01:06:58;;;;;;;2.10;2.00;;;;;;;15.87;73.55;102828.19;4787207;29;20117;-71
2022/08/10 01:09:45;;;;;;;1.70;1.60;;;;;;;15.84;73.67;102837.09;4787235;29;20494;-72
2022/08/10 01:12:30;;;;;;;5.90;2.00;;;;;;;15.81;74.35;102829.88;4787373;29;20059;-72
2022/08/10 01:15:23;;;;;;;1.95;1.85;;;;;;;15.74;74.22;102830.81;4799501;29;20138;-72
2022/08/10 01:18:01;;;;;;;1.85;1.75;;;;;;;15.74;73.93;102833.50;4786730;29;20545;-72
2022/08/10 01:20:34;;;;;;;1.92;1.65;;;;;;;15.70;74.60;102824.03;4787261;29;20117;-72
2022/08/10 01:23:16;;;;;;;2.03;1.90;;;;;;;15.67;74.62;102837.13;4787099;29;20051;-72
2022/08/10 01:25:55;;;;;;;1.90;1.80;;;;;;;15.64;74.99;102840.66;4787182;29;20157;-72
2022/08/10 01:29:06;;;;;;;1.90;1.80;;;;;;;15.59;75.04;102830.47;4787050;29;20051;-72
2022/08/10 01:31:41;;;;;;;2.00;1.90;;;;;;;15.53;75.13;102824.06;4786699;29;20051;-72
2022/08/10 01:34:12;;;;;;;2.45;2.05;;;;;;;15.49;75.74;102828.78;4787123;29;20047;-72
2022/08/10 01:36:52;;;;;;;4.83;1.90;;;;;;;15.50;75.25;102814.19;4786721;29;20056;-72
2022/08/10 01:39:23;;;;;;;2.03;1.92;;;;;;;15.46;75.70;102816.19;4787319;29;20754;-72
2022/08/10 01:41:59;;;;;;;1.70;1.70;;;;;;;15.43;75.73;102819.72;4787001;29;20134;-72
2022/08/10 01:44:33;;;;;;;2.40;2.17;;;;;;;15.40;76.13;102814.44;4786948;29;20048;-72
2022/08/10 01:50:03;;;;;;;2.15;2.05;;;;;;;15.33;76.42;102815.38;4786495;29;20064;-73
2022/08/10 01:52:31;;;;;;;2.22;2.05;;;;;;;15.29;76.46;102818.16;4786529;29;20051;-72
2022/08/10 01:54:58;;;;;;;2.42;2.10;;;;;;;15.29;76.39;102817.38;4786095;29;20091;-72
2022/08/10 01:57:30;;;;;;;1.98;1.88;;;;;;;15.26;76.84;102819.00;4786501;29;20078;-72
2022/08/10 01:59:59;;;;;;;2.47;1.80;;;;;;;15.20;77.34;102812.63;4785892;29;20059;-72
2022/08/10 02:02:32;;;;;;;2.22;2.00;;;;;;;15.19;77.24;102816.50;4785975;29;20059;-72
2022/08/10 02:05:02;;;;;;;3.92;2.30;;;;;;;15.17;77.34;102815.41;4786105;29;20043;-72
2022/08/10 02:07:31;;;;;;;3.60;2.03;;;;;;;15.14;77.33;102813.56;4786339;29;20555;-72
2022/08/10 02:10:09;;;;;;;1.90;1.80;;;;;;;15.11;77.44;102815.16;4786472;29;20194;-72
2022/08/10 02:12:36;;;;;;;;;;;;;;;15.09;76.54;102817.50;4786816;29;20419;-72
2022/08/10 02:15:09;;;;;;;2.08;1.98;;;;;;;15.06;77.76;102818.34;4785849;29;19937;-72
2022/08/10 02:17:38;;;;;;;2.20;2.00;;;;;;;15.02;78.01;102813.06;4786133;29;20048;-72
2022/08/10 02:20:31;;;;;;;2.40;2.20;;;;;;;14.99;78.20;102816.59;4786312;29;20140;-72
2022/08/10 02:23:21;;;;;;;2.95;2.28;;;;;;;14.98;78.18;102811.66;4786474;29;20090;-72
2022/08/10 02:25:50;;;;;;;2.45;2.30;;;;;;;14.94;78.63;102810.97;4786346;29;20052;-72
2022/08/10 02:28:19;;;;;;;2.20;2.00;;;;;;;14.91;79.05;102812.56;4785765;29;20494;-72
2022/08/10 02:30:58;;;;;;;2.40;2.20;;;;;;;14.87;78.96;102811.88;4769809;29;20068;-72
2022/08/10 02:33:26;;;;;;;2.20;2.10;;;;;;;14.88;79.26;102815.31;4786191;29;20071;-72
2022/08/10 02:35:54;;;;;;;2.55;2.13;;;;;;;14.84;79.35;102812.72;4785766;29;20058;-72
2022/08/10 02:38:31;;;;;;;2.40;2.30;;;;;;;14.85;79.28;102818.84;4785732;29;20490;-72
2022/08/10 02:41:28;;;;;;;2.08;1.98;;;;;;;14.82;79.54;102814.31;4785435;29;20583;-72
2022/08/10 02:44:31;;;;;;;2.17;2.08;;;;;;;14.80;79.34;102817.41;4786021;29;20145;-72
2022/08/10 02:47:45;;;;;;;2.40;2.30;;;;;;;14.78;79.70;102805.63;4784641;29;20055;-72
2022/08/10 02:50:33;;;;;;;2.20;2.10;;;;;;;14.75;79.89;102804.53;4786285;29;20056;-72
2022/08/10 02:53:27;;;;;;;2.30;2.20;;;;;;;14.75;79.94;102795.75;4785643;29;20514;-72
2022/08/10 02:56:45;;;;;;;3.25;2.22;;;;;;;14.70;79.92;102794.31;4785176;29;20124;-72
2022/08/10 02:59:18;;;;;;;3.05;2.40;;;;;;;14.66;81.33;102793.63;4784961;29;20048;-72
2022/08/10 03:01:47;;;;;;;2.42;2.33;;;;;;;14.64;81.07;102787.94;4785702;29;20056;-72
2022/08/10 03:04:19;;;;;;;4.35;2.60;;;;;;;14.64;81.36;102790.63;4785638;29;20581;-72
2022/08/10 03:07:10;;;;;;;4.30;2.60;;;;;;;14.62;81.18;102783.00;4786263;29;20140;-72
2022/08/10 03:09:39;;;;;;;2.90;2.70;;;;;;;14.60;81.78;102792.63;4788705;29;20138;-72
2022/08/10 03:12:09;;;;;;;2.47;2.38;;;;;;;14.58;81.97;102786.91;4787003;29;20139;-72
2022/08/10 03:14:56;;;;;;;2.50;2.40;;;;;;;14.54;81.99;102788.94;4788741;29;20059;-72
2022/08/10 03:17:24;;;;;;;3.00;2.80;;;;;;;14.51;82.36;102790.50;4788962;29;20056;-72
2022/08/10 03:19:52;;;;;;;2.97;2.65;;;;;;;14.50;82.57;102786.31;4788561;29;20063;-72
2022/08/10 03:22:40;;;;;;;2.67;2.58;;;;;;;14.46;82.85;102784.88;4788846;29;20404;-72
2022/08/10 03:25:10;;;;;;;3.88;2.60;;;;;;;14.46;82.88;102792.94;4788368;29;20128;-72
2022/08/10 03:27:39;;;;;;;7.93;3.33;;;;;;;14.43;83.16;102786.47;4786960;29;20094;-72
2022/08/10 03:30:07;;;;;;;3.35;3.05;;;;;;;14.40;83.18;102784.59;4787468;29;20058;-72
2022/08/10 03:32:54;;;;;;;3.00;2.63;;;;;;;14.37;83.31;102782.78;4788498;29;20392;-72
2022/08/10 03:35:21;;;;;;;3.38;2.80;;;;;;;14.35;83.48;102783.19;4788469;29;20085;-72
2022/08/10 03:37:47;;;;;;;5.18;3.15;;;;;;;14.31;84.11;102777.16;4788594;29;20064;-73
2022/08/10 03:40:21;;;;;;;4.68;3.13;;;;;;;14.29;84.48;102784.84;4788632;29;20064;-72
2022/08/10 03:43:10;;;;;;;5.63;2.83;;;;;;;14.27;84.42;102773.78;4788589;29;20572;-72
2022/08/10 03:45:39;;;;;;;3.28;3.08;;;;;;;14.27;84.84;102773.03;4788327;29;20047;-72
2022/08/10 03:48:23;;;;;;;5.82;3.40;;;;;;;14.26;84.78;102766.94;4787207;29;20054;-72
2022/08/10 03:51:00;;;;;;;3.50;3.30;;;;;;;14.21;84.99;102767.41;4788426;29;20139;-72
2022/08/10 03:53:27;;;;;;;3.90;3.47;;;;;;;14.20;85.41;102771.25;4788194;29;20056;-72
2022/08/10 03:56:15;;;;;;;5.63;3.30;;;;;;;14.19;85.47;102769.00;4787881;29;20060;-72
2022/08/10 03:58:56;;;;;;;;;;;;;;;14.20;83.81;102775.88;4788742;29;20540;-72
2022/08/10 04:01:24;;;;;;;5.30;3.22;;;;;;;14.15;85.67;102761.03;4788497;29;19987;-72
2022/08/10 04:04:11;;;;;;;4.15;3.70;;;;;;;14.12;85.69;102755.75;4788260;29;20079;-72
2022/08/10 04:06:43;;;;;;;4.30;3.90;;;;;;;14.11;86.17;102757.66;4771781;29;20056;-73
2022/08/10 04:09:10;;;;;;;3.90;3.60;;;;;;;14.11;86.18;102762.28;4788013;29;20055;-72
2022/08/10 04:11:36;;;;;;;4.30;3.92;;;;;;;14.10;86.88;102760.75;4787421;29;20054;-72
2022/08/10 04:14:06;;;;;;;3.80;3.50;;;;;;;14.07;86.95;102765.03;4787204;29;20525;-72
2022/08/10 04:16:52;;;;;;;5.07;4.15;;;;;;;14.05;87.14;102771.97;4787755;29;20139;-72
2022/08/10 04:19:19;;;;;;;5.20;4.05;;;;;;;14.03;87.62;102775.81;4771261;29;20056;-72
2022/08/10 04:22:12;;;;;;;4.20;3.90;;;;;;;14.05;87.01;102772.72;4787805;29;20063;-72
2022/08/10 04:24:40;;;;;;;4.53;3.72;;;;;;;14.02;87.68;102773.53;4787137;29;20514;-72
2022/08/10 04:27:07;;;;;;;4.60;4.30;;;;;;;14.03;87.58;102775.81;4787630;29;20058;-72
2022/08/10 04:29:34;;;;;;;4.72;4.28;;;;;;;14.02;88.07;102781.56;4787615;29;20059;-72
2022/08/10 04:32:03;;;;;;;4.28;3.95;;;;;;;14.02;88.15;102778.91;4787537;29;20054;-72
2022/08/10 04:34:31;;;;;;;5.10;3.95;;;;;;;14.01;88.16;102774.72;4787654;29;20109;-72
2022/08/10 04:37:00;;;;;;;10.05;4.35;;;;;;;14.00;88.28;102773.97;4787045;29;20514;-72
2022/08/10 04:39:34;;;;;;;4.55;4.25;;;;;;;14.01;88.28;102780.81;4787414;29;20121;-72
2022/08/10 04:42:00;;;;;;;4.50;4.20;;;;;;;14.04;88.61;102776.56;4787518;29;20048;-72
2022/08/10 04:44:27;;;;;;;4.70;4.30;;;;;;;14.05;88.55;102774.63;4787506;29;20052;-72
2022/08/10 04:46:53;;;;;;;9.82;4.40;;;;;;;14.07;88.46;102781.09;4787474;29;20157;-72
2022/08/10 04:49:24;;;;;;;4.40;4.10;;;;;;;14.10;88.52;102772.22;4787195;29;20194;-73
2022/08/10 04:52:10;;;;;;;5.05;4.65;;;;;;;14.13;88.64;102768.72;4787631;29;20083;-72
2022/08/10 04:54:36;;;;;;;4.88;4.47;;;;;;;14.13;88.99;102759.94;4786995;29;20047;-72
2022/08/10 04:57:03;;;;;;;5.35;4.70;;;;;;;14.17;88.99;102765.97;4787412;29;20048;-72
2022/08/10 04:59:30;;;;;;;5.15;4.75;;;;;;;14.21;88.72;102767.41;4787350;29;20060;-72
2022/08/10 05:01:56;;;;;;;5.25;4.88;;;;;;;14.26;88.71;102771.53;4786988;29;20162;-72
2022/08/10 05:04:43;;;;;;;5.93;5.43;;;;;;;14.29;88.86;102766.09;4787423;29;20052;-72
2022/08/10 05:07:12;;;;;;;5.97;4.80;;;;;;;14.31;89.49;102774.47;4787263;29;20475;-72
2022/08/10 05:09:43;;;;;;;5.15;4.78;;;;;;;14.37;89.06;102771.31;4771463;29;20051;-72
2022/08/10 05:12:34;;;;;;;5.28;4.78;;;;;;;14.45;88.84;102773.41;4787128;29;20131;-74
2022/08/10 05:15:09;;;;;;;5.40;5.00;;;;;;;14.54;88.56;102770.16;4787019;29;20133;-72
2022/08/10 05:17:37;;;;;;;7.97;5.25;;;;;;;15.48;87.83;102773.59;4787236;29;20060;-72
2022/08/10 05:20:05;;;;;;;6.03;5.53;;;;;;;18.32;76.05;102775.13;4786979;29;20052;-73
2022/08/10 05:22:39;;;;;;;5.65;5.05;;;;;;;19.48;69.65;102778.84;4786608;29;20151;-72
2022/08/10 05:25:10;;;;;;;6.90;5.28;;;;;;;20.11;66.35;102785.31;4785529;29;20079;-73
2022/08/10 05:27:37;;;;;;;6.15;5.55;;;;;;;21.92;59.98;102783.66;4786690;29;20113;-73
2022/08/10 05:30:05;;;;;;;8.00;4.82;;;;;;;23.31;54.97;102781.94;4786007;29;20540;-73
2022/08/10 05:32:33;;;;;;;5.65;5.15;;;;;;;24.21;51.45;102778.69;4787114;29;20047;-73
2022/08/10 05:35:20;;;;;;;5.18;4.88;;;;;;;25.14;48.87;102783.53;4786892;29;20075;-72
2022/08/10 05:37:50;;;;;;;6.50;4.63;;;;;;;25.71;47.80;102788.53;4786236;29;20056;-72
2022/08/10 05:40:41;;;;;;;6.53;4.97;;;;;;;26.28;46.17;102789.19;4786779;29;20052;-72
2022/08/10 05:43:15;;;;;;;5.68;5.18;;;;;;;26.60;45.00;102792.31;4785462;29;20059;-72
2022/08/10 05:45:43;;;;;;;5.85;5.25;;;;;;;26.96;44.07;102798.59;4785216;29;20052;-72
2022/08/10 05:48:30;;;;;;;5.60;5.20;;;;;;;26.87;43.89;102796.88;4786890;29;20137;-71
2022/08/10 05:51:17;;;;;;;6.47;5.00;;;;;;;27.13;43.42;102793.78;4786452;29;20139;-72
2022/08/10 05:53:46;;;;;;;5.97;5.50;;;;;;;27.08;43.30;102794.56;4786861;29;20446;-72
2022/08/10 05:56:42;;;;;;;5.47;5.07;;;;;;;27.12;43.54;102800.50;4786732;29;20047;-72
2022/08/10 05:59:26;;;;;;;5.95;5.30;;;;;;;27.10;43.72;102803.75;4786648;29;20051;-72
2022/08/10 06:02:35;;;;;;;5.47;5.07;;;;;;;27.04;44.21;102813.97;4786430;29;20134;-73
2022/08/10 06:05:08;;;;;;;7.20;5.18;;;;;;;26.70;44.29;102802.44;4786505;29;20102;-72
2022/08/10 06:07:45;;;;;;;6.13;5.40;;;;;;;26.27;45.06;102804.06;4786114;29;20517;-72
2022/08/10 06:10:14;;;;;;;6.38;5.88;;;;;;;26.00;45.93;102809.06;4786321;29;20889;-72
2022/08/10 06:15:58;;;;;;;6.22;5.68;;;;;;;25.32;47.50;102801.38;4786387;29;20143;-75
2022/08/10 06:18:25;;;;;;;7.00;6.28;;;;;;;24.72;49.08;102803.47;4785880;29;20063;-76
2022/08/10 06:20:53;;;;;;;6.68;5.97;;;;;;;24.43;49.41;102796.38;4769438;29;20056;-75
2022/08/10 06:23:20;;;;;;;6.68;6.07;;;;;;;23.81;51.45;102787.09;4786125;29;20482;-75
2022/08/10 06:25:46;;;;;;;6.28;5.80;;;;;;;23.80;52.28;102791.03;4784979;29;20478;-74
2022/08/10 06:28:37;;;;;;;7.82;5.90;;;;;;;23.67;52.85;102790.69;4786381;29;20051;-75
2022/08/10 06:31:06;;;;;;;13.43;5.72;;;;;;;23.36;53.31;102792.13;4786145;29;20426;-74
2022/08/10 06:33:36;;;;;;;6.53;6.00;;;;;;;23.29;53.60;102789.84;4785925;29;20043;-75
2022/08/10 06:36:06;;;;;;;6.18;5.78;;;;;;;23.12;53.94;102786.22;4785012;29;20502;-74
2022/08/10 06:38:34;;;;;;;7.07;5.60;;;;;;;22.83;55.13;102787.13;4786330;29;20063;-75
2022/08/10 06:41:07;;;;;;;6.32;5.88;;;;;;;22.67;55.12;102793.84;4784527;29;20461;-74
2022/08/10 06:43:35;;;;;;;10.52;6.15;;;;;;;22.40;56.67;102786.81;4786081;29;20051;-74
2022/08/10 06:46:10;;;;;;;5.45;5.15;;;;;;;22.25;57.30;102792.31;4785861;29;20052;-74
2022/08/10 06:48:47;;;;;;;5.80;5.35;;;;;;;22.21;57.97;102786.31;4769452;29;20079;-74
2022/08/10 06:51:20;;;;;;;6.30;5.68;;;;;;;22.17;57.85;102793.16;4784077;29;20056;-74
2022/08/10 06:53:51;;;;;;;7.22;5.80;;;;;;;22.02;57.80;102789.72;4785060;29;20052;-73
2022/08/10 06:56:23;;;;;;;6.93;5.80;;;;;;;22.01;58.71;102788.97;4786250;29;20551;-76
2022/08/10 06:59:19;;;;;;;7.50;5.68;;;;;;;22.02;58.72;102793.19;4785887;29;20490;-74
2022/08/10 07:02:00;;;;;;;8.43;5.80;;;;;;;22.02;58.44;102787.75;4786085;29;20052;-75
2022/08/10 07:04:37;;;;;;;6.40;5.90;;;;;;;21.99;59.22;102788.69;4785520;29;20059;-75
2022/08/10 07:07:05;;;;;;;6.68;5.45;;;;;;;22.06;58.63;102796.44;4785692;29;20055;-75
2022/08/10 07:09:36;;;;;;;6.18;5.20;;;;;;;22.02;59.28;102797.84;4785509;29;20055;-75
2022/08/10 07:12:05;;;;;;;5.75;5.28;;;;;;;22.12;58.96;102794.56;4769297;29;20063;-76
2022/08/10 07:14:38;;;;;;;;;;;;;;;22.25;58.68;102797.72;4769703;29;20971;-75
2022/08/10 07:17:09;;;;;;;5.60;5.07;;;;;;;22.31;58.61;102797.06;4785724;29;19930;-76
2022/08/10 07:19:45;;;;;;;7.38;5.65;;;;;;;22.24;58.49;102804.38;4768693;29;20055;-76
2022/08/10 07:22:21;;;;;;;5.45;4.97;;;;;;;22.22;58.78;102798.66;4786175;29;20052;-74
2022/08/10 07:25:10;;;;;;;11.13;5.30;;;;;;;22.27;59.00;102803.44;4785682;29;20052;-74
2022/08/10 07:27:39;;;;;;;9.43;5.13;;;;;;;22.39;58.46;102795.44;4785422;29;20105;-75
2022/08/10 07:30:27;;;;;;;9.98;5.80;;;;;;;22.43;57.43;102794.00;4783904;29;20078;-74
2022/08/10 07:32:54;;;;;;;5.07;4.70;;;;;;;22.66;57.51;102797.03;4784928;29;20056;-74
2022/08/10 07:35:22;;;;;;;5.88;5.32;;;;;;;22.70;57.05;102792.88;4785299;29;20048;-74
2022/08/10 07:37:52;;;;;;;14.75;5.68;;;;;;;22.73;56.51;102789.22;4784161;29;20108;-75
2022/08/10 07:40:21;;;;;;;5.85;5.28;;;;;;;22.76;57.24;102785.56;4785360;29;20063;-76
2022/08/10 07:42:52;;;;;;;5.18;4.68;;;;;;;22.96;57.00;102782.09;4769175;29;20060;-76
2022/08/10 07:45:19;;;;;;;;;;;;;;;23.23;57.34;102789.03;4786199;29;20506;-74
2022/08/10 07:47:54;;;;;;;5.10;4.53;;;;;;;23.42;56.15;102797.63;4785257;29;19977;-74
2022/08/10 07:50:23;;;;;;;4.68;4.38;;;;;;;23.59;55.53;102793.84;4785120;29;20052;-74
2022/08/10 07:52:52;;;;;;;4.80;4.40;;;;;;;23.71;55.46;102800.13;4768698;29;20060;-74
2022/08/10 07:55:19;;;;;;;5.50;5.00;;;;;;;23.82;55.14;102797.50;4787145;29;20043;-75
2022/08/10 07:58:07;;;;;;;7.10;4.28;;;;;;;24.14;54.56;102797.44;4788229;29;20502;-75
2022/08/10 08:00:35;;;;;;;5.80;4.00;;;;;;;24.22;53.82;102798.50;4786873;29;20159;-74
2022/08/10 08:03:06;;;;;;;6.82;4.50;;;;;;;24.32;52.91;102802.53;4787451;29;20090;-75
2022/08/10 08:05:32;;;;;;;4.50;3.92;;;;;;;24.50;53.41;102802.13;4787807;29;20051;-74
2022/08/10 08:08:21;;;;;;;5.03;3.92;;;;;;;24.62;52.26;102802.91;4788578;29;20083;-75
2022/08/10 08:10:48;;;;;;;7.75;4.05;;;;;;;24.75;52.06;102805.94;4788017;29;20430;-74
2022/08/10 08:13:15;;;;;;;6.60;3.80;;;;;;;24.73;52.50;102802.22;4788296;29;20052;-75
2022/08/10 08:15:43;;;;;;;3.38;3.17;;;;;;;24.96;52.25;102805.78;4787817;29;20059;-74
2022/08/10 08:18:31;;;;;;;3.60;3.40;;;;;;;25.23;50.84;102802.38;4788119;29;20105;-75
2022/08/10 08:21:03;;;;;;;5.82;3.63;;;;;;;25.37;50.64;102798.69;4771518;29;20109;-73
2022/08/10 08:23:51;;;;;;;6.28;2.97;;;;;;;25.67;48.47;102798.94;4788067;29;20587;-72
2022/08/10 08:26:38;;;;;;;3.05;2.80;;;;;;;25.84;48.23;102796.22;4774490;29;20055;-75
2022/08/10 08:29:08;;;;;;;6.22;3.30;;;;;;;26.02;48.10;102795.69;4787901;29;20054;-75
2022/08/10 08:31:35;;;;;;;6.90;3.35;;;;;;;26.35;46.81;102789.44;4787061;29;20051;-74
2022/08/10 08:34:20;;;;;;;2.83;2.65;;;;;;;26.46;46.87;102789.38;4786214;29;20059;-75
2022/08/10 08:36:48;;;;;;;6.00;3.03;;;;;;;26.57;45.98;102789.34;4787149;29;20063;-74
2022/08/10 08:39:15;;;;;;;2.97;2.78;;;;;;;26.80;46.31;102791.94;4787732;29;20524;-75
2022/08/10 08:42:23;;;;;;;5.53;3.30;;;;;;;27.09;45.98;102782.38;4787473;29;20076;-75
2022/08/10 08:45:06;;;;;;;3.47;2.58;;;;;;;27.30;45.62;102788.91;4775969;29;20059;-76
2022/08/10 08:47:55;;;;;;;5.53;2.70;;;;;;;27.30;43.80;102790.91;4787620;29;20047;-75
2022/08/10 08:50:53;;;;;;;2.65;2.33;;;;;;;27.60;44.04;102793.66;4787331;29;20491;-78
2022/08/10 08:53:30;;;;;;;2.55;2.35;;;;;;;27.65;44.56;102787.41;4785875;29;20063;-77
2022/08/10 08:56:37;;;;;;;2.65;2.30;;;;;;;27.84;43.16;102782.78;4786034;29;20060;-77
2022/08/10 08:59:28;;;;;;;5.68;2.90;;;;;;;28.03;44.14;102785.53;4786201;29;20058;-76
2022/08/10 09:02:33;;;;;;;2.65;2.30;;;;;;;28.19;43.78;102784.63;4786613;29;20052;-77
2022/08/10 09:05:27;;;;;;;6.80;2.50;;;;;;;28.27;43.03;102785.56;4785902;29;20064;-77
2022/08/10 09:08:40;;;;;;;5.85;2.38;;;;;;;28.19;43.58;102774.41;4786981;29;20043;-76
2022/08/10 09:11:23;;;;;;;2.47;2.00;;;;;;;28.31;43.14;102774.31;4786693;29;20586;-75
2022/08/10 09:14:13;;;;;;;8.27;2.35;;;;;;;28.45;43.26;102773.13;4787180;29;20047;-76
2022/08/10 09:16:50;;;;;;;3.83;2.42;;;;;;;28.58;42.08;102775.97;4787195;29;20691;-75
2022/08/10 09:19:50;;;;;;;3.88;1.88;;;;;;;28.74;41.75;102769.53;4787388;29;20430;-78
2022/08/10 09:22:39;;;;;;;3.08;2.30;;;;;;;28.93;41.14;102777.72;4770640;29;20113;-74
2022/08/10 09:25:19;;;;;;;2.10;2.00;;;;;;;29.07;40.57;102771.06;4787107;29;20056;-78
2022/08/10 09:27:59;;;;;;;2.20;2.00;;;;;;;29.13;40.58;102763.47;4787125;29;20058;-78
2022/08/10 09:30:52;;;;;;;2.97;2.20;;;;;;;29.37;40.71;102761.84;4770260;29;20056;-77
2022/08/10 09:33:45;;;;;;;2.88;2.10;;;;;;;29.36;39.62;102758.34;4786828;29;20095;-77
2022/08/10 09:36:58;;;;;;;3.83;2.20;;;;;;;29.41;39.36;102754.06;4773032;29;20075;-77
2022/08/10 09:39:47;;;;;;;5.03;2.25;;;;;;;29.43;39.97;102746.78;4785339;29;20092;-75
2022/08/10 09:42:50;;;;;;;6.68;1.92;;;;;;;29.66;38.58;102747.13;4770255;29;20083;-75
2022/08/10 09:46:05;;;;;;;2.22;2.13;;;;;;;29.68;37.84;102744.59;4786721;29;20117;-74
2022/08/10 09:48:50;;;;;;;5.27;2.20;;;;;;;29.61;36.68;102742.47;4786671;29;20047;-74
2022/08/10 09:51:41;;;;;;;6.05;2.00;;;;;;;29.65;36.96;102742.16;4770448;29;20052;-73
2022/08/10 09:54:19;;;;;;;8.93;2.10;;;;;;;30.02;35.63;102735.72;4786646;29;20056;-74
2022/08/10 09:57:14;;;;;;;3.67;1.88;;;;;;;30.21;36.43;102735.63;4786833;29;20056;-73
2022/08/10 10:00:11;;;;;;;3.80;1.77;;;;;;;30.37;36.78;102729.03;4786407;29;20075;-73
2022/08/10 10:03:06;;;;;;;3.78;2.20;;;;;;;30.42;35.91;102725.41;4786670;29;20114;-75
2022/08/10 10:05:45;;;;;;;5.75;2.30;;;;;;;30.20;37.21;102723.88;4786397;29;20117;-75
2022/08/10 10:08:20;;;;;;;2.03;1.80;;;;;;;30.28;35.75;102716.47;4786389;29;20541;-75
2022/08/10 10:11:01;;;;;;;5.07;1.90;;;;;;;30.23;36.23;102722.81;4786446;29;20472;-75
2022/08/10 10:13:45;;;;;;;2.38;2.10;;;;;;;30.19;35.62;102717.66;4769650;29;20047;-75
2022/08/10 10:16:55;;;;;;;6.57;2.05;;;;;;;30.22;36.46;102698.63;4785866;29;20520;-74
2022/08/10 10:19:28;;;;;;;2.92;1.70;;;;;;;30.31;35.54;102701.69;4786204;29;20048;-74
2022/08/10 10:22:12;;;;;;;3.20;1.60;;;;;;;30.39;33.56;102694.25;4769885;29;20059;-75
2022/08/10 10:24:45;;;;;;;4.97;2.10;;;;;;;30.48;34.26;102701.28;4786527;29;20056;-75
2022/08/10 10:27:46;;;;;;;2.80;1.67;;;;;;;30.64;34.27;102694.72;4784122;29;20066;-72
2022/08/10 10:30:16;;;;;;;2.95;1.90;;;;;;;30.69;34.12;102693.84;4786236;29;20060;-74
2022/08/10 10:33:07;;;;;;;11.35;2.00;;;;;;;30.87;34.62;102683.16;4769580;29;20136;-72
2022/08/10 10:35:45;;;;;;;1.80;1.70;;;;;;;30.98;33.36;102686.38;4784444;29;20102;-73
2022/08/10 10:38:13;;;;;;;1.70;1.60;;;;;;;30.90;30.83;102682.09;4785586;29;20497;-73
2022/08/10 10:40:51;;;;;;;5.25;1.60;;;;;;;31.05;30.64;102687.72;4785912;29;20109;-74
2022/08/10 10:44:00;;;;;;;4.03;1.55;;;;;;;30.95;30.26;102683.97;4785670;29;20430;-74
2022/08/10 10:46:57;;;;;;;1.70;1.58;;;;;;;31.11;30.08;102669.81;4785608;29;20056;-74
2022/08/10 10:49:39;;;;;;;1.90;1.65;;;;;;;31.24;29.63;102660.00;4785912;29;20059;-74
2022/08/10 10:52:12;;;;;;;2.53;1.60;;;;;;;31.20;28.83;102667.84;4785536;29;20052;-75
2022/08/10 10:55:01;;;;;;;2.50;1.58;;;;;;;30.99;28.88;102670.63;4769386;29;20168;-75
2022/08/10 10:57:50;;;;;;;1.50;1.38;;;;;;;31.18;28.71;102665.66;4785852;29;20484;-76
2022/08/10 11:00:35;;;;;;;1.63;1.52;;;;;;;31.26;28.24;102663.69;4785381;29;20062;-75
2022/08/10 11:03:21;;;;;;;4.88;1.40;;;;;;;31.30;28.80;102655.81;4785649;29;20521;-74
2022/08/10 11:05:51;;;;;;;3.08;1.40;;;;;;;31.35;28.73;102654.19;4786050;29;20058;-74
2022/08/10 11:08:22;;;;;;;4.80;1.25;;;;;;;31.23;28.39;102650.28;4785733;29;20052;-74
2022/08/10 11:11:01;;;;;;;7.18;3.50;;;;;;;31.33;28.27;102645.75;4785203;29;20624;-73
2022/08/10 11:13:43;;;;;;;1.50;1.40;;;;;;;31.54;28.59;102646.44;4793258;29;20056;-74
2022/08/10 11:16:42;;;;;;;4.68;1.60;;;;;;;31.57;28.27;102645.34;4785450;29;20485;-76
2022/08/10 11:19:20;;;;;;;6.60;1.55;;;;;;;31.54;28.23;102654.69;4785451;29;20052;-75
2022/08/10 11:22:17;;;;;;;2.47;1.63;;;;;;;31.53;27.32;102649.72;4785784;29;20048;-75
2022/08/10 11:25:05;;;;;;;2.38;1.80;;;;;;;31.53;27.50;102633.94;4785137;29;20052;-75
2022/08/10 11:28:02;;;;;;;3.08;1.50;;;;;;;31.54;27.49;102640.19;4785117;29;20052;-76
2022/08/10 11:30:53;;;;;;;5.47;1.58;;;;;;;31.50;28.41;102638.53;4788530;29;20514;-76
2022/08/10 11:33:32;;;;;;;;;;;;;;;31.46;29.28;102631.88;4789220;29;20160;-74
2022/08/10 11:37:04;;;;;;;1.50;1.40;;;;;;;31.33;28.37;102637.50;4788433;29;19930;-73
2022/08/10 11:39:31;;;;;;;5.10;1.58;;;;;;;31.37;27.68;102635.88;4780107;29;20335;-73
2022/08/10 11:42:05;;;;;;;1.48;1.35;;;;;;;31.31;27.43;102627.03;4788269;29;20052;-73
2022/08/10 11:44:55;;;;;;;4.70;1.65;;;;;;;31.41;27.16;102630.75;4788707;29;20059;-74
2022/08/10 11:47:32;;;;;;;2.90;1.50;;;;;;;31.39;26.95;102625.06;4787063;29;20082;-73
2022/08/10 11:50:19;;;;;;;5.82;1.48;;;;;;;31.45;26.14;102628.41;4788356;29;20051;-74
2022/08/10 11:53:14;;;;;;;5.57;1.63;;;;;;;31.53;27.64;102627.72;4788557;29;20062;-73
2022/08/10 11:55:48;;;;;;;2.97;1.60;;;;;;;31.41;27.38;102619.75;4787890;29;20056;-73
2022/08/10 12:01:06;;;;;;;3.00;1.80;;;;;;;31.22;27.12;102615.78;4786705;29;20063;-73
2022/08/10 12:03:36;;;;;;;1.58;1.33;;;;;;;31.17;26.82;102620.19;4786694;29;20058;-73
2022/08/10 12:06:12;;;;;;;4.20;1.60;;;;;;;31.14;26.33;102616.50;4787654;29;20047;-74
2022/08/10 12:08:44;;;;;;;2.42;1.38;;;;;;;31.11;26.86;102611.31;4787751;29;20056;-73
2022/08/10 12:11:32;;;;;;;6.32;1.33;;;;;;;31.19;27.59;102601.13;4786453;29;20091;-74
2022/08/10 12:14:17;;;;;;;4.75;1.85;;;;;;;31.38;28.11;102611.84;4787727;29;20498;-73
2022/08/10 12:16:56;;;;;;;1.38;1.35;;;;;;;31.19;26.92;102598.38;4788334;29;20056;-76
2022/08/10 12:19:38;;;;;;;2.70;1.45;;;;;;;31.05;26.68;102594.97;4788069;29;20059;-75
2022/08/10 12:22:34;;;;;;;1.67;1.40;;;;;;;31.07;26.00;102594.41;4786431;29;20056;-75
2022/08/10 12:25:06;;;;;;;1.60;1.50;;;;;;;31.00;26.81;102584.09;4787763;29;20048;-74
2022/08/10 12:27:37;;;;;;;;;;;;;;;31.07;27.66;102586.16;4786970;29;20059;-74